Grand Rapids, MI (49503)

8:04 PM EDT on August 04, 2015 (GMT -0400)
WXGR.NET | | Change Station
CLOSE
Current Station
Personal Weather Station
Location: Grand Rapids, MI
Elevation: 756 ft
Nearby Weather Stations

Elev 756 ft 42.96 °N, 85.63 °W | Updated 2 seconds ago

Mostly Cloudy
Mostly Cloudy
73.6 °F
Feels Like 77 °F
N
2.0
Wind Variable Wind from NE
Gusts 2.0 mph

Today
High -- | Low -- °F
--% Chance of Precip.
Yesterday
High -- | Low -- °F
Precip. -- in
6:36 AM 9:00 PM
Waning Gibbous, 73% visible
Pressure 29.94 in
Visibility 10.0 miles
Clouds Few 5000 ft
Scattered Clouds 25000 ft
Heat Index 77 °F
Dew Point 42 °F
Humidity 32%
Rainfall 0.00 in
Snow Depth Not available.
UV 0 out of 12
Pollen 7.20 out of 12
Air Quality Not available.
Flu Activity Not available.
METAR KGRR 042353Z 33010KT 10SM FEW050 SCT250 23/11 A2995 RMK AO2 SLP139 T02330111 10267 20233 51001

More Conditions Fewer Conditions

Pressure 29.94 in
Visibility 10.0 miles
Clouds Few 5000 ft
Scattered Clouds 25000 ft
Heat Index 77 °F
Dew Point 42 °F
Humidity 32%
Rainfall 0.00 in
Snow Depth Not available.
UV 0 out of 12
Pollen 7.20 out of 12
Air Quality Not available.
Flu Activity Not available.
METAR KGRR 042353Z 33010KT 10SM FEW050 SCT250 23/11 A2995 RMK AO2 SLP139 T02330111 10267 20233 51001

More Conditions Fewer Conditions

10-Day Weather Forecast

×

Almanac

Astronomy

Aug. 04, 2015 Rise Set
Actual Time
Civil Twilight
Nautical Twilight
Astronomical Twilight
Moon
Length of Visible Light
Length of Day
Tomorrow will be .
, % of the Moon is Illuminated

Today's Extremes

State Highs State Lows

Community

WunderPhotos

Upload Photos

1,844,024 photos uploaded!

WunderBlogs® & News

Nearby

Air Quality

  Air Quality AQ Index Pollutant
Not available.

Snow Depth

Station Depth Elevation

Earthquake Activity

City Distance Mag. Time & Date
Minimum magnitude displayed is 2.5.

Coastal Water Temperatures

Place Temperature

Stations

Nearby Weather Stations

Station Location Temp. Windchill Dew Point Humidity Wind Precip. Elev Updated Type